DAL252 KMSP-KSFO
Flight info
| Callsign | DAL252 |
|---|---|
| Flight time | 3h 33m |
| Altitude | 30000 |
| Route | SCHEP1 RXANN TEYOU LLUKY CYS J148 MTU/N0453F320 J148 OAL INYOE DYAMD5 |
| Aircraft | B739/M-SDE2E3FGHIRWXY/LB1 |
Departure
| Time | 2026-05-05 03:07 |
|---|---|
| Airport | Minneapolis–Saint Paul International Airport / Wold–Chamberlain Field (KMSP) |
Arrival
| Time | 2026-05-05 06:40 |
|---|---|
| Airport | San Francisco International Airport (KSFO) |
| Time | Latitude | Longitude | Altitude | Speed | Heading |
|---|---|---|---|---|---|
| 2026-05-05 02:47 | 44.87964 | -93.20798 | 824 ft | 0 kts | 25° |
| 2026-05-05 02:55 | 44.87960 | -93.20801 | 824 ft | 2 kts | 26° |
| 2026-05-05 02:56 | 44.87952 | -93.20806 | 824 ft | 2 kts | 28° |
| 2026-05-05 03:01 | 44.87926 | -93.20827 | 825 ft | 8 kts | 28° |
| 2026-05-05 03:01 | 44.87881 | -93.20845 | 825 ft | 0 kts | 122° |
| 2026-05-05 03:02 | 44.87881 | -93.20844 | 825 ft | 0 kts | 122° |
| 2026-05-05 03:03 | 44.87876 | -93.20832 | 825 ft | 3 kts | 122° |
| 2026-05-05 03:03 | 44.87856 | -93.20787 | 825 ft | 7 kts | 122° |
| 2026-05-05 03:03 | 44.87822 | -93.20709 | 823 ft | 11 kts | 123° |
| 2026-05-05 03:03 | 44.87760 | -93.20634 | 825 ft | 13 kts | 185° |
| 2026-05-05 03:04 | 44.87681 | -93.20581 | 825 ft | 15 kts | 121° |
| 2026-05-05 03:04 | 44.87622 | -93.20445 | 824 ft | 17 kts | 122° |
| 2026-05-05 03:04 | 44.87560 | -93.20305 | 824 ft | 11 kts | 121° |
| 2026-05-05 03:04 | 44.87517 | -93.20203 | 825 ft | 14 kts | 121° |
| 2026-05-05 03:05 | 44.87476 | -93.20109 | 824 ft | 10 kts | 123° |
| 2026-05-05 03:05 | 44.87436 | -93.20079 | 826 ft | 6 kts | 172° |
| 2026-05-05 03:05 | 44.87394 | -93.20099 | 827 ft | 7 kts | 218° |
| 2026-05-05 03:05 | 44.87375 | -93.20170 | 826 ft | 8 kts | 279° |
| 2026-05-05 03:06 | 44.87398 | -93.20227 | 824 ft | 10 kts | 302° |
| 2026-05-05 03:06 | 44.87571 | -93.20627 | 824 ft | 87 kts | 301° |
| 2026-05-05 03:06 | 44.88011 | -93.21639 | 822 ft | 151 kts | 301° |
| 2026-05-05 03:06 | 44.88599 | -93.23046 | 1213 ft | 172 kts | 299° |
| 2026-05-05 03:07 | 44.89177 | -93.24512 | 2097 ft | 176 kts | 291° |
| 2026-05-05 03:07 | 44.89082 | -93.26403 | 2240 ft | 226 kts | 247° |
| 2026-05-05 03:07 | 44.88029 | -93.28228 | 2864 ft | 239 kts | 236° |
| 2026-05-05 03:07 | 44.86971 | -93.29981 | 3763 ft | 232 kts | 237° |
| 2026-05-05 03:08 | 44.86001 | -93.31809 | 4366 ft | 235 kts | 239° |
| 2026-05-05 03:08 | 44.85039 | -93.33712 | 4808 ft | 248 kts | 240° |
| 2026-05-05 03:08 | 44.84020 | -93.35735 | 5349 ft | 256 kts | 240° |
| 2026-05-05 03:08 | 44.82978 | -93.37785 | 6212 ft | 258 kts | 240° |
| 2026-05-05 03:09 | 44.81930 | -93.39830 | 7065 ft | 257 kts | 239° |
| 2026-05-05 03:09 | 44.80874 | -93.41882 | 7830 ft | 261 kts | 239° |
| 2026-05-05 03:09 | 44.79803 | -93.43956 | 8661 ft | 262 kts | 239° |
| 2026-05-05 03:09 | 44.78726 | -93.46036 | 9497 ft | 264 kts | 239° |
| 2026-05-05 03:10 | 44.77642 | -93.48124 | 10251 ft | 266 kts | 239° |
| 2026-05-05 03:10 | 44.76517 | -93.50296 | 10554 ft | 286 kts | 239° |
| 2026-05-05 03:10 | 44.75299 | -93.52651 | 10740 ft | 308 kts | 239° |
| 2026-05-05 03:10 | 44.73992 | -93.55168 | 10910 ft | 329 kts | 238° |
| 2026-05-05 03:11 | 44.72609 | -93.57818 | 11302 ft | 341 kts | 238° |
| 2026-05-05 03:11 | 44.71194 | -93.60515 | 11975 ft | 344 kts | 238° |
| 2026-05-05 03:11 | 44.69773 | -93.63217 | 12735 ft | 344 kts | 238° |
| 2026-05-05 03:11 | 44.68347 | -93.65928 | 13474 ft | 346 kts | 238° |
| 2026-05-05 03:12 | 44.66913 | -93.68652 | 14141 ft | 347 kts | 238° |
| 2026-05-05 03:12 | 44.65482 | -93.71370 | 14904 ft | 344 kts | 239° |
| 2026-05-05 03:12 | 44.64059 | -93.74070 | 15656 ft | 343 kts | 239° |
| 2026-05-05 03:12 | 44.62644 | -93.76756 | 16372 ft | 342 kts | 240° |
| 2026-05-05 03:13 | 44.61226 | -93.79447 | 16957 ft | 344 kts | 240° |
| 2026-05-05 03:13 | 44.59804 | -93.82145 | 17005 ft | 344 kts | 240° |
| 2026-05-05 03:13 | 44.58380 | -93.84843 | 17024 ft | 344 kts | 240° |
| 2026-05-05 03:13 | 44.56955 | -93.87542 | 17025 ft | 344 kts | 240° |
| 2026-05-05 03:14 | 44.55546 | -93.90205 | 17030 ft | 345 kts | 240° |
| 2026-05-05 03:14 | 44.54119 | -93.92901 | 17027 ft | 344 kts | 240° |
| 2026-05-05 03:14 | 44.52673 | -93.95630 | 17037 ft | 344 kts | 240° |
| 2026-05-05 03:14 | 44.51264 | -93.98287 | 17035 ft | 344 kts | 240° |
| 2026-05-05 03:15 | 44.49837 | -94.00974 | 17030 ft | 344 kts | 240° |
| 2026-05-05 03:15 | 44.48408 | -94.03664 | 17043 ft | 344 kts | 240° |
| 2026-05-05 03:15 | 44.46974 | -94.06361 | 17041 ft | 345 kts | 240° |
| 2026-05-05 03:15 | 44.45543 | -94.09049 | 17048 ft | 344 kts | 240° |
| 2026-05-05 03:16 | 44.44110 | -94.11739 | 17059 ft | 346 kts | 240° |
| 2026-05-05 03:16 | 44.42662 | -94.14458 | 17462 ft | 350 kts | 240° |
| 2026-05-05 03:16 | 44.41210 | -94.17175 | 18223 ft | 347 kts | 240° |
| 2026-05-05 03:16 | 44.39770 | -94.19867 | 18825 ft | 346 kts | 240° |
| 2026-05-05 03:17 | 44.38325 | -94.22568 | 19348 ft | 348 kts | 240° |
| 2026-05-05 03:17 | 44.36873 | -94.25284 | 19840 ft | 350 kts | 240° |
| 2026-05-05 03:17 | 44.35410 | -94.28017 | 20352 ft | 352 kts | 240° |
| 2026-05-05 03:17 | 44.33942 | -94.30754 | 20865 ft | 353 kts | 240° |
| 2026-05-05 03:18 | 44.32469 | -94.33499 | 21357 ft | 354 kts | 240° |
| 2026-05-05 03:18 | 44.30983 | -94.36266 | 21852 ft | 356 kts | 240° |
| 2026-05-05 03:18 | 44.29489 | -94.39043 | 22327 ft | 359 kts | 240° |
| 2026-05-05 03:18 | 44.27988 | -94.41833 | 22795 ft | 361 kts | 240° |
| 2026-05-05 03:19 | 44.24955 | -94.47460 | 23650 ft | 365 kts | 240° |
| 2026-05-05 03:19 | 44.23430 | -94.50296 | 24017 ft | 367 kts | 240° |
| 2026-05-05 03:19 | 44.21901 | -94.53154 | 24379 ft | 369 kts | 240° |
| 2026-05-05 03:20 | 44.20364 | -94.56028 | 24740 ft | 370 kts | 240° |
| 2026-05-05 03:20 | 44.18822 | -94.58910 | 25088 ft | 373 kts | 240° |
| 2026-05-05 03:20 | 44.17265 | -94.61817 | 25411 ft | 375 kts | 240° |
| 2026-05-05 03:20 | 44.15701 | -94.64732 | 25743 ft | 377 kts | 240° |
| 2026-05-05 03:21 | 44.14127 | -94.67664 | 26081 ft | 379 kts | 240° |
| 2026-05-05 03:21 | 44.12542 | -94.70610 | 26428 ft | 380 kts | 240° |
| 2026-05-05 03:21 | 44.10958 | -94.73550 | 26908 ft | 379 kts | 240° |
| 2026-05-05 03:21 | 44.09385 | -94.76465 | 27453 ft | 376 kts | 240° |
| 2026-05-05 03:22 | 44.07820 | -94.79363 | 27957 ft | 374 kts | 240° |
| 2026-05-05 03:22 | 44.06264 | -94.82246 | 28426 ft | 372 kts | 240° |
| 2026-05-05 03:22 | 44.04713 | -94.85119 | 28899 ft | 371 kts | 240° |
| 2026-05-05 03:22 | 44.03159 | -94.87995 | 29291 ft | 372 kts | 240° |
| 2026-05-05 03:23 | 44.01604 | -94.90869 | 29638 ft | 373 kts | 240° |
| 2026-05-05 03:23 | 44.00036 | -94.93763 | 29845 ft | 376 kts | 240° |
| 2026-05-05 03:23 | 43.96969 | -94.99579 | 29835 ft | 375 kts | 241° |
| 2026-05-05 03:24 | 43.93938 | -95.05437 | 29847 ft | 373 kts | 241° |
| 2026-05-05 03:24 | 43.90917 | -95.11265 | 29851 ft | 372 kts | 241° |
| 2026-05-05 03:25 | 43.87893 | -95.17072 | 29857 ft | 371 kts | 241° |
| 2026-05-05 03:25 | 43.84865 | -95.22871 | 29857 ft | 372 kts | 240° |
| 2026-05-05 03:26 | 43.81827 | -95.28673 | 29861 ft | 372 kts | 240° |
| 2026-05-05 03:26 | 43.78778 | -95.34485 | 29869 ft | 374 kts | 240° |
| 2026-05-05 03:27 | 43.75719 | -95.40303 | 29873 ft | 374 kts | 240° |
| 2026-05-05 03:27 | 43.72646 | -95.46135 | 29877 ft | 375 kts | 240° |
| 2026-05-05 03:28 | 43.69568 | -95.51967 | 29878 ft | 376 kts | 240° |
| 2026-05-05 03:28 | 43.66479 | -95.57808 | 29875 ft | 377 kts | 240° |
| 2026-05-05 03:29 | 43.63383 | -95.63649 | 29877 ft | 377 kts | 240° |
| 2026-05-05 03:29 | 43.60281 | -95.69489 | 29874 ft | 378 kts | 240° |
| 2026-05-05 03:30 | 43.57172 | -95.75334 | 29873 ft | 378 kts | 240° |
| 2026-05-05 03:30 | 43.54054 | -95.81182 | 29878 ft | 379 kts | 240° |
| 2026-05-05 03:31 | 43.50932 | -95.87027 | 29870 ft | 379 kts | 240° |
| 2026-05-05 03:31 | 43.47806 | -95.92866 | 29878 ft | 379 kts | 240° |
| 2026-05-05 03:32 | 43.44674 | -95.98707 | 29876 ft | 379 kts | 240° |
| 2026-05-05 03:32 | 43.41541 | -96.04537 | 29877 ft | 379 kts | 240° |
| 2026-05-05 03:33 | 43.38403 | -96.10367 | 29881 ft | 379 kts | 240° |
| 2026-05-05 03:33 | 43.35261 | -96.16192 | 29878 ft | 379 kts | 240° |
| 2026-05-05 03:34 | 43.32648 | -96.21030 | 29875 ft | 380 kts | 240° |
| 2026-05-05 03:34 | 43.29540 | -96.26877 | 29871 ft | 377 kts | 243° |
| 2026-05-05 03:35 | 43.27280 | -96.33274 | 29876 ft | 371 kts | 251° |
| 2026-05-05 03:35 | 43.25186 | -96.39758 | 29877 ft | 373 kts | 250° |
| 2026-05-05 03:36 | 43.23052 | -96.46250 | 29881 ft | 373 kts | 250° |
| 2026-05-05 03:36 | 43.20914 | -96.52746 | 29871 ft | 375 kts | 250° |
| 2026-05-05 03:37 | 43.18769 | -96.59265 | 29872 ft | 375 kts | 250° |
| 2026-05-05 03:37 | 43.16619 | -96.65787 | 29877 ft | 376 kts | 250° |
| 2026-05-05 03:38 | 43.14462 | -96.72315 | 29883 ft | 376 kts | 250° |
| 2026-05-05 03:38 | 43.12299 | -96.78849 | 29883 ft | 377 kts | 250° |
| 2026-05-05 03:39 | 43.10131 | -96.85379 | 29891 ft | 377 kts | 250° |
| 2026-05-05 03:39 | 43.07959 | -96.91909 | 29892 ft | 377 kts | 250° |
| 2026-05-05 03:40 | 43.05781 | -96.98436 | 29896 ft | 377 kts | 250° |
| 2026-05-05 03:40 | 43.03604 | -97.04950 | 29903 ft | 377 kts | 250° |
| 2026-05-05 03:41 | 43.01423 | -97.11456 | 29899 ft | 377 kts | 250° |
| 2026-05-05 03:41 | 42.99252 | -97.17919 | 29909 ft | 376 kts | 250° |
| 2026-05-05 03:42 | 42.97065 | -97.24415 | 29903 ft | 377 kts | 250° |
| 2026-05-05 03:42 | 42.94872 | -97.30913 | 29908 ft | 377 kts | 250° |
| 2026-05-05 03:43 | 42.92673 | -97.37411 | 29902 ft | 377 kts | 250° |
| 2026-05-05 03:43 | 42.90469 | -97.43910 | 29906 ft | 378 kts | 250° |
| 2026-05-05 03:44 | 42.88260 | -97.50407 | 29902 ft | 378 kts | 249° |
| 2026-05-05 03:44 | 42.86044 | -97.56911 | 29911 ft | 378 kts | 249° |
| 2026-05-05 03:45 | 42.83820 | -97.63421 | 29906 ft | 379 kts | 249° |
| 2026-05-05 03:45 | 42.81590 | -97.69934 | 29910 ft | 380 kts | 249° |
| 2026-05-05 03:46 | 42.79352 | -97.76457 | 29894 ft | 380 kts | 249° |
| 2026-05-05 03:46 | 42.77107 | -97.82983 | 29913 ft | 381 kts | 249° |
| 2026-05-05 03:47 | 42.74853 | -97.89517 | 29909 ft | 382 kts | 249° |
| 2026-05-05 03:47 | 42.72609 | -97.96011 | 29898 ft | 382 kts | 249° |
| 2026-05-05 03:48 | 42.70345 | -98.02545 | 29894 ft | 382 kts | 249° |
| 2026-05-05 03:48 | 42.68079 | -98.09070 | 29897 ft | 382 kts | 249° |
| 2026-05-05 03:49 | 42.65805 | -98.15601 | 29893 ft | 382 kts | 249° |
| 2026-05-05 03:49 | 42.63533 | -98.22113 | 29889 ft | 382 kts | 249° |
| 2026-05-05 03:50 | 42.61256 | -98.28623 | 29900 ft | 382 kts | 249° |
| 2026-05-05 03:50 | 42.58974 | -98.35132 | 29901 ft | 382 kts | 249° |
| 2026-05-05 03:51 | 42.56689 | -98.41637 | 29912 ft | 382 kts | 249° |
| 2026-05-05 03:51 | 42.54397 | -98.48147 | 29921 ft | 383 kts | 249° |
| 2026-05-05 03:52 | 42.52097 | -98.54666 | 29930 ft | 384 kts | 249° |
| 2026-05-05 03:52 | 42.49786 | -98.61198 | 29931 ft | 385 kts | 249° |
| 2026-05-05 03:53 | 42.48098 | -98.67997 | 29941 ft | 379 kts | 260° |
| 2026-05-05 03:53 | 42.46905 | -98.74974 | 29937 ft | 381 kts | 259° |
| 2026-05-05 03:54 | 42.45646 | -98.81957 | 29930 ft | 382 kts | 259° |
| 2026-05-05 03:54 | 42.44379 | -98.88947 | 29926 ft | 383 kts | 259° |
| 2026-05-05 03:55 | 42.43109 | -98.95952 | 29918 ft | 383 kts | 259° |
| 2026-05-05 03:55 | 42.41837 | -99.02964 | 29911 ft | 384 kts | 259° |
| 2026-05-05 03:56 | 42.40560 | -99.09975 | 29904 ft | 384 kts | 259° |
| 2026-05-05 03:56 | 42.39279 | -99.16987 | 29901 ft | 384 kts | 259° |
| 2026-05-05 03:57 | 42.37993 | -99.24002 | 29898 ft | 384 kts | 259° |
| 2026-05-05 03:57 | 42.36704 | -99.31004 | 29901 ft | 384 kts | 259° |
| 2026-05-05 03:58 | 42.35410 | -99.38011 | 29901 ft | 384 kts | 258° |
| 2026-05-05 03:58 | 42.34114 | -99.45002 | 29903 ft | 384 kts | 258° |
| 2026-05-05 03:59 | 42.32811 | -99.52002 | 29895 ft | 384 kts | 258° |
| 2026-05-05 03:59 | 42.31504 | -99.58997 | 29892 ft | 384 kts | 258° |
| 2026-05-05 04:00 | 42.30193 | -99.65993 | 29895 ft | 384 kts | 258° |
| 2026-05-05 04:00 | 42.28877 | -99.72987 | 29896 ft | 384 kts | 258° |
| 2026-05-05 04:01 | 42.27557 | -99.79978 | 29900 ft | 384 kts | 258° |
| 2026-05-05 04:01 | 42.26240 | -99.86923 | 29900 ft | 384 kts | 258° |
| 2026-05-05 04:02 | 42.24901 | -99.93963 | 29906 ft | 385 kts | 258° |
| 2026-05-05 04:02 | 42.23575 | -100.00912 | 29908 ft | 385 kts | 258° |
| 2026-05-05 04:03 | 42.22234 | -100.07907 | 29903 ft | 385 kts | 258° |
| 2026-05-05 04:03 | 42.20889 | -100.14904 | 29909 ft | 385 kts | 258° |
| 2026-05-05 04:04 | 42.19539 | -100.21898 | 29923 ft | 385 kts | 258° |
| 2026-05-05 04:04 | 42.18185 | -100.28891 | 29933 ft | 386 kts | 258° |
| 2026-05-05 04:05 | 42.16823 | -100.35900 | 29940 ft | 387 kts | 258° |
| 2026-05-05 04:05 | 42.15455 | -100.42915 | 29950 ft | 387 kts | 258° |
| 2026-05-05 04:06 | 42.14081 | -100.49936 | 29949 ft | 388 kts | 258° |
| 2026-05-05 04:06 | 42.12699 | -100.56971 | 29959 ft | 389 kts | 258° |
| 2026-05-05 04:07 | 42.11309 | -100.64022 | 29955 ft | 390 kts | 257° |
| 2026-05-05 04:07 | 42.09910 | -100.71094 | 29961 ft | 391 kts | 257° |
| 2026-05-05 04:08 | 42.08503 | -100.78178 | 29948 ft | 392 kts | 257° |
| 2026-05-05 04:08 | 42.07089 | -100.85276 | 29951 ft | 393 kts | 257° |
| 2026-05-05 04:09 | 42.05666 | -100.92396 | 29932 ft | 394 kts | 257° |
| 2026-05-05 04:09 | 42.04235 | -100.99524 | 29938 ft | 395 kts | 257° |
| 2026-05-05 04:10 | 42.02798 | -101.06664 | 29936 ft | 396 kts | 257° |
| 2026-05-05 04:10 | 42.01362 | -101.13768 | 29925 ft | 396 kts | 257° |
| 2026-05-05 04:11 | 41.99911 | -101.20923 | 29926 ft | 397 kts | 257° |
| 2026-05-05 04:11 | 41.98454 | -101.28082 | 29920 ft | 397 kts | 257° |
| 2026-05-05 04:12 | 41.96991 | -101.35247 | 29919 ft | 398 kts | 257° |
| 2026-05-05 04:12 | 41.95522 | -101.42417 | 29928 ft | 398 kts | 257° |
| 2026-05-05 04:13 | 41.94046 | -101.49591 | 29922 ft | 399 kts | 257° |
| 2026-05-05 04:13 | 41.92565 | -101.56772 | 29925 ft | 399 kts | 257° |
| 2026-05-05 04:14 | 41.91078 | -101.63950 | 29920 ft | 399 kts | 257° |
| 2026-05-05 04:14 | 41.89584 | -101.71139 | 29921 ft | 400 kts | 257° |
| 2026-05-05 04:15 | 41.88086 | -101.78326 | 29913 ft | 400 kts | 257° |
| 2026-05-05 04:15 | 41.86581 | -101.85514 | 29920 ft | 400 kts | 257° |
| 2026-05-05 04:16 | 41.85072 | -101.92705 | 29904 ft | 400 kts | 257° |
| 2026-05-05 04:16 | 41.83558 | -101.99890 | 29912 ft | 400 kts | 257° |
| 2026-05-05 04:17 | 41.82039 | -102.07076 | 29900 ft | 400 kts | 256° |
| 2026-05-05 04:17 | 41.80516 | -102.14253 | 29910 ft | 401 kts | 256° |
| 2026-05-05 04:18 | 41.78998 | -102.21387 | 29903 ft | 401 kts | 256° |
| 2026-05-05 04:18 | 41.77464 | -102.28569 | 29907 ft | 401 kts | 256° |
| 2026-05-05 04:19 | 41.75924 | -102.35752 | 29892 ft | 401 kts | 256° |
| 2026-05-05 04:19 | 41.74380 | -102.42935 | 29897 ft | 402 kts | 256° |
| 2026-05-05 04:20 | 41.72828 | -102.50125 | 29892 ft | 402 kts | 256° |
| 2026-05-05 04:20 | 41.71270 | -102.57322 | 29888 ft | 403 kts | 256° |
| 2026-05-05 04:21 | 41.69706 | -102.64523 | 29877 ft | 403 kts | 256° |
| 2026-05-05 04:21 | 41.68136 | -102.71729 | 29874 ft | 404 kts | 256° |
| 2026-05-05 04:22 | 41.66825 | -102.77723 | 29866 ft | 404 kts | 256° |
| 2026-05-05 04:22 | 41.65242 | -102.84942 | 29861 ft | 405 kts | 256° |
| 2026-05-05 04:23 | 41.63650 | -102.92180 | 29863 ft | 406 kts | 256° |
| 2026-05-05 04:23 | 41.62052 | -102.99416 | 29856 ft | 406 kts | 256° |
| 2026-05-05 04:24 | 41.60449 | -103.06654 | 29858 ft | 406 kts | 256° |
| 2026-05-05 04:25 | 41.58034 | -103.17512 | 29862 ft | 406 kts | 256° |
| 2026-05-05 04:25 | 41.56419 | -103.24742 | 29859 ft | 406 kts | 256° |
| 2026-05-05 04:26 | 41.54800 | -103.31970 | 29866 ft | 406 kts | 256° |
| 2026-05-05 04:26 | 41.53177 | -103.39186 | 29870 ft | 406 kts | 256° |
| 2026-05-05 04:27 | 41.51549 | -103.46406 | 29867 ft | 406 kts | 256° |
| 2026-05-05 04:27 | 41.49917 | -103.53615 | 29875 ft | 406 kts | 256° |
| 2026-05-05 04:28 | 41.48283 | -103.60815 | 29888 ft | 406 kts | 256° |
| 2026-05-05 04:28 | 41.46644 | -103.68012 | 29900 ft | 406 kts | 256° |
| 2026-05-05 04:29 | 41.45000 | -103.75206 | 29908 ft | 406 kts | 255° |
| 2026-05-05 04:29 | 41.43350 | -103.82404 | 29906 ft | 406 kts | 255° |
| 2026-05-05 04:30 | 41.41696 | -103.89597 | 29905 ft | 406 kts | 255° |
| 2026-05-05 04:30 | 41.40037 | -103.96788 | 29893 ft | 406 kts | 255° |
| 2026-05-05 04:31 | 41.38371 | -104.03986 | 29893 ft | 407 kts | 255° |
| 2026-05-05 04:31 | 41.36699 | -104.11184 | 29864 ft | 407 kts | 255° |
| 2026-05-05 04:32 | 41.35021 | -104.18387 | 29866 ft | 408 kts | 255° |
| 2026-05-05 04:32 | 41.33337 | -104.25595 | 29867 ft | 408 kts | 255° |
| 2026-05-05 04:33 | 41.31646 | -104.32810 | 29863 ft | 409 kts | 255° |
| 2026-05-05 04:33 | 41.29949 | -104.40026 | 29868 ft | 409 kts | 255° |
| 2026-05-05 04:34 | 41.28246 | -104.47246 | 29889 ft | 409 kts | 255° |
| 2026-05-05 04:34 | 41.26537 | -104.54465 | 29912 ft | 410 kts | 255° |
| 2026-05-05 04:35 | 41.24823 | -104.61685 | 29941 ft | 410 kts | 255° |
| 2026-05-05 04:35 | 41.23105 | -104.68906 | 29964 ft | 410 kts | 255° |
| 2026-05-05 04:36 | 41.21378 | -104.76135 | 29976 ft | 411 kts | 255° |
| 2026-05-05 04:36 | 41.19972 | -104.83454 | 29990 ft | 409 kts | 259° |
| 2026-05-05 04:37 | 41.18723 | -104.90821 | 29982 ft | 409 kts | 259° |
| 2026-05-05 04:37 | 41.17464 | -104.98192 | 29956 ft | 409 kts | 259° |
| 2026-05-05 04:38 | 41.16195 | -105.05507 | 29933 ft | 410 kts | 259° |
| 2026-05-05 04:38 | 41.14905 | -105.12876 | 29898 ft | 410 kts | 259° |
| 2026-05-05 04:39 | 41.13607 | -105.20247 | 29860 ft | 410 kts | 259° |
| 2026-05-05 04:39 | 41.12305 | -105.27610 | 29820 ft | 410 kts | 259° |
| 2026-05-05 04:40 | 41.10997 | -105.34978 | 29846 ft | 410 kts | 259° |
| 2026-05-05 04:40 | 41.09684 | -105.42345 | 29865 ft | 411 kts | 259° |
| 2026-05-05 04:41 | 41.08365 | -105.49718 | 29879 ft | 411 kts | 259° |
| 2026-05-05 04:41 | 41.07042 | -105.57085 | 29873 ft | 412 kts | 259° |
| 2026-05-05 04:42 | 41.05711 | -105.64466 | 29883 ft | 412 kts | 259° |
| 2026-05-05 04:42 | 41.04375 | -105.71846 | 29857 ft | 412 kts | 259° |
| 2026-05-05 04:43 | 41.03041 | -105.79180 | 29840 ft | 412 kts | 258° |
| 2026-05-05 04:43 | 41.01695 | -105.86562 | 29812 ft | 413 kts | 258° |
| 2026-05-05 04:44 | 41.00341 | -105.93949 | 29791 ft | 413 kts | 258° |
| 2026-05-05 04:44 | 40.98984 | -106.01333 | 29777 ft | 413 kts | 258° |
| 2026-05-05 04:45 | 40.97620 | -106.08719 | 29794 ft | 413 kts | 258° |
| 2026-05-05 04:45 | 40.96251 | -106.16107 | 29793 ft | 414 kts | 258° |
| 2026-05-05 04:46 | 40.94876 | -106.23499 | 29805 ft | 414 kts | 258° |
| 2026-05-05 04:46 | 40.93495 | -106.30893 | 29796 ft | 414 kts | 258° |
| 2026-05-05 04:47 | 40.92108 | -106.38292 | 29804 ft | 415 kts | 258° |
| 2026-05-05 04:47 | 40.90714 | -106.45700 | 29808 ft | 415 kts | 258° |
| 2026-05-05 04:48 | 40.89314 | -106.53108 | 29810 ft | 416 kts | 258° |
| 2026-05-05 04:48 | 40.87908 | -106.60524 | 29815 ft | 416 kts | 257° |
| 2026-05-05 04:49 | 40.86497 | -106.67935 | 29829 ft | 416 kts | 257° |
| 2026-05-05 04:49 | 40.85085 | -106.75329 | 29840 ft | 417 kts | 257° |
| 2026-05-05 04:50 | 40.83660 | -106.82755 | 29861 ft | 417 kts | 257° |
| 2026-05-05 04:50 | 40.82233 | -106.90169 | 29858 ft | 418 kts | 257° |
| 2026-05-05 04:51 | 40.80797 | -106.97605 | 29868 ft | 418 kts | 257° |
| 2026-05-05 04:51 | 40.79354 | -107.05039 | 29862 ft | 418 kts | 257° |
| 2026-05-05 04:52 | 40.77906 | -107.12477 | 29863 ft | 419 kts | 257° |
| 2026-05-05 04:52 | 40.76452 | -107.19917 | 29864 ft | 419 kts | 257° |
| 2026-05-05 04:53 | 40.74994 | -107.27354 | 29876 ft | 419 kts | 257° |
| 2026-05-05 04:53 | 40.73529 | -107.34793 | 29868 ft | 419 kts | 256° |
| 2026-05-05 04:54 | 40.72060 | -107.42226 | 29885 ft | 419 kts | 256° |
| 2026-05-05 04:54 | 40.70598 | -107.49601 | 29891 ft | 419 kts | 256° |
| 2026-05-05 04:55 | 40.69118 | -107.57033 | 29889 ft | 419 kts | 256° |
| 2026-05-05 04:55 | 40.67635 | -107.64457 | 29884 ft | 419 kts | 256° |
| 2026-05-05 04:56 | 40.66146 | -107.71882 | 29880 ft | 419 kts | 256° |
| 2026-05-05 04:56 | 40.64652 | -107.79308 | 29857 ft | 420 kts | 256° |
| 2026-05-05 04:57 | 40.63150 | -107.86742 | 29831 ft | 420 kts | 256° |
| 2026-05-05 04:57 | 40.61643 | -107.94180 | 29799 ft | 421 kts | 256° |
| 2026-05-05 04:58 | 40.60129 | -108.01622 | 29780 ft | 422 kts | 256° |
| 2026-05-05 04:58 | 40.58607 | -108.09076 | 29771 ft | 422 kts | 256° |
| 2026-05-05 04:59 | 40.57078 | -108.16533 | 29771 ft | 423 kts | 256° |
| 2026-05-05 04:59 | 40.55542 | -108.24006 | 29765 ft | 423 kts | 256° |
| 2026-05-05 05:00 | 40.53999 | -108.31480 | 29764 ft | 424 kts | 255° |
| 2026-05-05 05:00 | 40.52449 | -108.38966 | 29754 ft | 425 kts | 255° |
| 2026-05-05 05:01 | 40.50891 | -108.46462 | 29759 ft | 425 kts | 255° |
| 2026-05-05 05:01 | 40.49326 | -108.53964 | 29762 ft | 426 kts | 255° |
| 2026-05-05 05:02 | 40.47753 | -108.61474 | 29754 ft | 427 kts | 255° |
| 2026-05-05 05:02 | 40.46173 | -108.68994 | 29761 ft | 427 kts | 255° |
| 2026-05-05 05:03 | 40.44588 | -108.76513 | 29759 ft | 428 kts | 255° |
| 2026-05-05 05:03 | 40.42996 | -108.84037 | 29750 ft | 427 kts | 255° |
| 2026-05-05 05:04 | 40.41415 | -108.91480 | 29759 ft | 425 kts | 255° |
| 2026-05-05 05:04 | 40.39826 | -108.98936 | 29769 ft | 424 kts | 255° |
| 2026-05-05 05:05 | 40.38237 | -109.06372 | 29773 ft | 423 kts | 254° |
| 2026-05-05 05:05 | 40.36645 | -109.13791 | 29799 ft | 422 kts | 254° |
| 2026-05-05 05:06 | 40.35050 | -109.21199 | 29827 ft | 422 kts | 254° |
| 2026-05-05 05:06 | 40.33445 | -109.28630 | 29844 ft | 422 kts | 254° |
| 2026-05-05 05:07 | 40.31840 | -109.36031 | 29863 ft | 422 kts | 254° |
| 2026-05-05 05:07 | 40.30231 | -109.43427 | 29875 ft | 422 kts | 254° |
| 2026-05-05 05:08 | 40.28630 | -109.50764 | 29874 ft | 421 kts | 254° |
| 2026-05-05 05:08 | 40.27016 | -109.58135 | 29855 ft | 421 kts | 253° |
| 2026-05-05 05:09 | 40.25397 | -109.65502 | 29837 ft | 421 kts | 253° |
| 2026-05-05 05:09 | 40.23776 | -109.72856 | 29816 ft | 420 kts | 253° |
| 2026-05-05 05:10 | 40.22151 | -109.80201 | 29785 ft | 420 kts | 253° |
| 2026-05-05 05:10 | 40.20798 | -109.86298 | 29768 ft | 420 kts | 253° |
| 2026-05-05 05:11 | 40.19167 | -109.93629 | 29772 ft | 420 kts | 253° |
| 2026-05-05 05:11 | 40.17532 | -110.00953 | 29775 ft | 419 kts | 253° |
| 2026-05-05 05:12 | 40.15894 | -110.08271 | 29783 ft | 419 kts | 253° |
| 2026-05-05 05:12 | 40.14065 | -110.15500 | 29787 ft | 419 kts | 246° |
| 2026-05-05 05:13 | 40.11650 | -110.22441 | 29798 ft | 419 kts | 245° |
| 2026-05-05 05:13 | 40.09234 | -110.29311 | 29810 ft | 419 kts | 245° |
| 2026-05-05 05:14 | 40.06825 | -110.36238 | 29823 ft | 419 kts | 245° |
| 2026-05-05 05:14 | 40.04425 | -110.43181 | 29825 ft | 419 kts | 245° |
| 2026-05-05 05:15 | 40.02029 | -110.50113 | 29844 ft | 419 kts | 245° |
| 2026-05-05 05:15 | 39.99629 | -110.57042 | 29856 ft | 419 kts | 244° |
| 2026-05-05 05:16 | 39.97219 | -110.63982 | 29861 ft | 420 kts | 244° |
| 2026-05-05 05:16 | 39.94805 | -110.70915 | 29873 ft | 420 kts | 244° |
| 2026-05-05 05:17 | 39.92386 | -110.77849 | 29890 ft | 421 kts | 244° |
| 2026-05-05 05:17 | 39.89959 | -110.84786 | 29893 ft | 421 kts | 244° |
| 2026-05-05 05:18 | 39.87529 | -110.91714 | 29898 ft | 421 kts | 244° |
| 2026-05-05 05:18 | 39.85094 | -110.98641 | 29904 ft | 421 kts | 244° |
| 2026-05-05 05:19 | 39.82653 | -111.05570 | 29880 ft | 421 kts | 244° |
| 2026-05-05 05:19 | 39.80205 | -111.12499 | 29885 ft | 421 kts | 244° |
| 2026-05-05 05:20 | 39.77754 | -111.19421 | 29876 ft | 422 kts | 244° |
| 2026-05-05 05:20 | 39.75298 | -111.26342 | 29874 ft | 422 kts | 243° |
| 2026-05-05 05:21 | 39.72834 | -111.33267 | 29853 ft | 422 kts | 243° |
| 2026-05-05 05:21 | 39.70372 | -111.40172 | 29862 ft | 422 kts | 243° |
| 2026-05-05 05:22 | 39.67902 | -111.47082 | 29838 ft | 422 kts | 243° |
| 2026-05-05 05:22 | 39.65428 | -111.53987 | 29837 ft | 422 kts | 243° |
| 2026-05-05 05:23 | 39.62954 | -111.60877 | 29825 ft | 421 kts | 243° |
| 2026-05-05 05:23 | 39.60492 | -111.67716 | 29801 ft | 421 kts | 243° |
| 2026-05-05 05:24 | 39.58013 | -111.74585 | 29809 ft | 420 kts | 243° |
| 2026-05-05 05:24 | 39.55530 | -111.81448 | 29855 ft | 420 kts | 244° |
| 2026-05-05 05:25 | 39.53069 | -111.88238 | 29798 ft | 413 kts | 243° |
| 2026-05-05 05:25 | 39.50618 | -111.94986 | 29775 ft | 415 kts | 243° |
| 2026-05-05 05:26 | 39.48158 | -112.01740 | 29777 ft | 415 kts | 243° |
| 2026-05-05 05:26 | 39.45685 | -112.08513 | 29780 ft | 416 kts | 243° |
| 2026-05-05 05:27 | 39.43216 | -112.15264 | 29819 ft | 416 kts | 243° |
| 2026-05-05 05:27 | 39.39492 | -112.25415 | 29854 ft | 417 kts | 243° |
| 2026-05-05 05:28 | 39.37020 | -112.32134 | 29886 ft | 417 kts | 243° |
| 2026-05-05 05:28 | 39.34524 | -112.38905 | 29912 ft | 417 kts | 243° |
| 2026-05-05 05:29 | 39.32024 | -112.45671 | 29915 ft | 417 kts | 243° |
| 2026-05-05 05:29 | 39.29669 | -112.52539 | 29906 ft | 419 kts | 251° |
| 2026-05-05 05:30 | 39.28107 | -112.59792 | 29892 ft | 419 kts | 252° |
| 2026-05-05 05:30 | 39.26546 | -112.67041 | 29861 ft | 419 kts | 252° |
| 2026-05-05 05:31 | 39.24954 | -112.74289 | 29826 ft | 419 kts | 251° |
| 2026-05-05 05:31 | 39.23346 | -112.81523 | 29788 ft | 420 kts | 251° |
| 2026-05-05 05:32 | 39.21730 | -112.88753 | 29755 ft | 420 kts | 251° |
| 2026-05-05 05:32 | 39.20117 | -112.95947 | 29740 ft | 420 kts | 251° |
| 2026-05-05 05:33 | 39.18478 | -113.03232 | 29746 ft | 421 kts | 251° |
| 2026-05-05 05:33 | 39.16843 | -113.10478 | 29754 ft | 421 kts | 251° |
| 2026-05-05 05:34 | 39.15214 | -113.17677 | 29750 ft | 422 kts | 251° |
| 2026-05-05 05:34 | 39.13566 | -113.24939 | 29752 ft | 422 kts | 251° |
| 2026-05-05 05:35 | 39.11913 | -113.32196 | 29759 ft | 423 kts | 251° |
| 2026-05-05 05:35 | 39.10241 | -113.39513 | 29763 ft | 423 kts | 251° |
| 2026-05-05 05:36 | 39.08577 | -113.46776 | 29766 ft | 424 kts | 251° |
| 2026-05-05 05:36 | 39.06914 | -113.54005 | 29757 ft | 424 kts | 251° |
| 2026-05-05 05:37 | 39.05236 | -113.61280 | 29763 ft | 425 kts | 250° |
| 2026-05-05 05:37 | 39.03551 | -113.68560 | 29774 ft | 425 kts | 250° |
| 2026-05-05 05:38 | 39.01861 | -113.75843 | 29761 ft | 425 kts | 250° |
| 2026-05-05 05:38 | 39.00164 | -113.83131 | 29757 ft | 426 kts | 250° |
| 2026-05-05 05:39 | 38.98462 | -113.90417 | 29766 ft | 426 kts | 250° |
| 2026-05-05 05:39 | 38.96756 | -113.97697 | 29768 ft | 426 kts | 250° |
| 2026-05-05 05:40 | 38.95044 | -114.04980 | 29776 ft | 426 kts | 250° |
| 2026-05-05 05:40 | 38.93327 | -114.12260 | 29777 ft | 426 kts | 250° |
| 2026-05-05 05:41 | 38.91604 | -114.19545 | 29797 ft | 427 kts | 250° |
| 2026-05-05 05:41 | 38.89872 | -114.26844 | 29784 ft | 428 kts | 250° |
| 2026-05-05 05:42 | 38.88131 | -114.34157 | 29802 ft | 429 kts | 250° |
| 2026-05-05 05:42 | 38.86381 | -114.41488 | 29802 ft | 430 kts | 250° |
| 2026-05-05 05:43 | 38.84624 | -114.48826 | 29808 ft | 430 kts | 250° |
| 2026-05-05 05:43 | 38.82861 | -114.56163 | 29806 ft | 430 kts | 250° |
| 2026-05-05 05:44 | 38.81093 | -114.63499 | 29808 ft | 431 kts | 250° |
| 2026-05-05 05:44 | 38.79320 | -114.70835 | 29814 ft | 431 kts | 250° |
| 2026-05-05 05:45 | 38.77539 | -114.78180 | 29803 ft | 432 kts | 250° |
| 2026-05-05 05:45 | 38.75751 | -114.85532 | 29804 ft | 432 kts | 250° |
| 2026-05-05 05:46 | 38.73955 | -114.92890 | 29794 ft | 433 kts | 249° |
| 2026-05-05 05:46 | 38.72165 | -115.00206 | 29792 ft | 434 kts | 249° |
| 2026-05-05 05:47 | 38.70353 | -115.07587 | 29806 ft | 435 kts | 249° |
| 2026-05-05 05:47 | 38.68535 | -115.14969 | 29798 ft | 435 kts | 249° |
| 2026-05-05 05:48 | 38.66710 | -115.22360 | 29797 ft | 436 kts | 249° |
| 2026-05-05 05:48 | 38.64876 | -115.29763 | 29803 ft | 437 kts | 249° |
| 2026-05-05 05:49 | 38.63033 | -115.37178 | 29802 ft | 438 kts | 249° |
| 2026-05-05 05:49 | 38.61184 | -115.44599 | 29807 ft | 438 kts | 249° |
| 2026-05-05 05:50 | 38.59324 | -115.52038 | 29805 ft | 440 kts | 249° |
| 2026-05-05 05:50 | 38.57456 | -115.59488 | 29800 ft | 440 kts | 250° |
| 2026-05-05 05:51 | 38.55581 | -115.66941 | 29806 ft | 441 kts | 250° |
| 2026-05-05 05:51 | 38.53698 | -115.74407 | 29800 ft | 442 kts | 250° |
| 2026-05-05 05:52 | 38.51806 | -115.81881 | 29807 ft | 442 kts | 250° |
| 2026-05-05 05:52 | 38.49910 | -115.89352 | 29806 ft | 443 kts | 250° |
| 2026-05-05 05:53 | 38.48007 | -115.96831 | 29820 ft | 443 kts | 250° |
| 2026-05-05 05:53 | 38.46091 | -116.04331 | 29814 ft | 444 kts | 250° |
| 2026-05-05 05:54 | 38.44186 | -116.11776 | 29823 ft | 445 kts | 250° |
| 2026-05-05 05:54 | 38.42258 | -116.19281 | 29822 ft | 446 kts | 250° |
| 2026-05-05 05:55 | 38.40319 | -116.26792 | 29829 ft | 446 kts | 250° |
| 2026-05-05 05:55 | 38.38369 | -116.34309 | 29838 ft | 447 kts | 250° |
| 2026-05-05 05:56 | 38.36410 | -116.41843 | 29839 ft | 448 kts | 250° |
| 2026-05-05 05:56 | 38.34441 | -116.49398 | 29845 ft | 449 kts | 250° |
| 2026-05-05 05:57 | 38.32466 | -116.56957 | 29845 ft | 451 kts | 250° |
| 2026-05-05 05:57 | 38.30479 | -116.64536 | 29843 ft | 452 kts | 250° |
| 2026-05-05 05:58 | 38.28821 | -116.70846 | 29864 ft | 453 kts | 250° |
| 2026-05-05 05:58 | 38.26814 | -116.78459 | 29869 ft | 454 kts | 251° |
| 2026-05-05 05:59 | 38.24797 | -116.86091 | 29887 ft | 456 kts | 251° |
| 2026-05-05 05:59 | 38.22768 | -116.93740 | 29893 ft | 457 kts | 251° |
| 2026-05-05 06:00 | 38.20727 | -117.01417 | 29923 ft | 458 kts | 251° |
| 2026-05-05 06:00 | 38.18678 | -117.09097 | 29925 ft | 460 kts | 251° |
| 2026-05-05 06:01 | 38.16616 | -117.16805 | 29943 ft | 461 kts | 251° |
| 2026-05-05 06:01 | 38.14541 | -117.24537 | 29930 ft | 463 kts | 252° |
| 2026-05-05 06:02 | 38.12454 | -117.32289 | 29918 ft | 465 kts | 252° |
| 2026-05-05 06:02 | 38.10355 | -117.40067 | 29889 ft | 466 kts | 252° |
| 2026-05-05 06:03 | 38.08243 | -117.47867 | 29860 ft | 468 kts | 252° |
| 2026-05-05 06:03 | 38.06115 | -117.55702 | 29859 ft | 470 kts | 252° |
| 2026-05-05 06:04 | 38.03976 | -117.63553 | 29858 ft | 472 kts | 252° |
| 2026-05-05 06:04 | 38.01824 | -117.71437 | 29865 ft | 474 kts | 252° |
| 2026-05-05 06:05 | 37.99906 | -117.79432 | 29845 ft | 473 kts | 263° |
| 2026-05-05 06:05 | 37.99086 | -117.87691 | 29855 ft | 473 kts | 266° |
| 2026-05-05 06:06 | 37.98299 | -117.96002 | 29860 ft | 476 kts | 266° |
| 2026-05-05 06:06 | 37.97454 | -118.04289 | 29861 ft | 478 kts | 265° |
| 2026-05-05 06:07 | 37.96568 | -118.12658 | 29851 ft | 480 kts | 265° |
| 2026-05-05 06:07 | 37.95669 | -118.21048 | 29874 ft | 481 kts | 265° |
| 2026-05-05 06:08 | 37.94758 | -118.29525 | 29874 ft | 483 kts | 265° |
| 2026-05-05 06:08 | 37.93852 | -118.37897 | 29881 ft | 483 kts | 265° |
| 2026-05-05 06:09 | 37.92933 | -118.46340 | 29867 ft | 484 kts | 265° |
| 2026-05-05 06:09 | 37.92007 | -118.54785 | 29883 ft | 484 kts | 265° |
| 2026-05-05 06:10 | 37.91076 | -118.63226 | 29900 ft | 484 kts | 265° |
| 2026-05-05 06:10 | 37.90139 | -118.71669 | 29913 ft | 485 kts | 265° |
| 2026-05-05 06:11 | 37.89192 | -118.80127 | 29917 ft | 485 kts | 265° |
| 2026-05-05 06:11 | 37.88232 | -118.88574 | 29925 ft | 485 kts | 265° |
| 2026-05-05 06:12 | 37.87264 | -118.97017 | 29923 ft | 485 kts | 265° |
| 2026-05-05 06:12 | 37.86293 | -119.05462 | 29922 ft | 484 kts | 265° |
| 2026-05-05 06:13 | 37.85319 | -119.13871 | 29914 ft | 484 kts | 265° |
| 2026-05-05 06:13 | 37.84338 | -119.22296 | 29901 ft | 484 kts | 265° |
| 2026-05-05 06:14 | 37.83352 | -119.30703 | 29949 ft | 482 kts | 265° |
| 2026-05-05 06:14 | 37.82362 | -119.39093 | 29944 ft | 482 kts | 265° |
| 2026-05-05 06:15 | 37.81367 | -119.47478 | 29950 ft | 482 kts | 265° |
| 2026-05-05 06:15 | 37.80706 | -119.53018 | 29967 ft | 482 kts | 265° |
| 2026-05-05 06:16 | 37.79702 | -119.61384 | 29963 ft | 481 kts | 265° |
| 2026-05-05 06:16 | 37.78692 | -119.69756 | 29986 ft | 481 kts | 265° |
| 2026-05-05 06:17 | 37.77677 | -119.78117 | 30004 ft | 481 kts | 265° |
| 2026-05-05 06:17 | 37.76655 | -119.86478 | 29990 ft | 482 kts | 265° |
| 2026-05-05 06:18 | 37.75626 | -119.94853 | 29991 ft | 481 kts | 265° |
| 2026-05-05 06:18 | 37.74593 | -120.03200 | 29990 ft | 478 kts | 265° |
| 2026-05-05 06:19 | 37.73572 | -120.11386 | 29990 ft | 473 kts | 265° |
| 2026-05-05 06:19 | 37.72546 | -120.19619 | 29854 ft | 477 kts | 265° |
| 2026-05-05 06:20 | 37.72026 | -120.23779 | 29232 ft | 480 kts | 264° |
| 2026-05-05 06:20 | 37.71504 | -120.27906 | 28682 ft | 474 kts | 264° |
| 2026-05-05 06:20 | 37.70986 | -120.31996 | 28108 ft | 468 kts | 264° |
| 2026-05-05 06:20 | 37.70475 | -120.36026 | 27550 ft | 463 kts | 264° |
| 2026-05-05 06:21 | 37.69968 | -120.40022 | 26993 ft | 458 kts | 264° |
| 2026-05-05 06:21 | 37.69482 | -120.43976 | 26462 ft | 453 kts | 265° |
| 2026-05-05 06:21 | 37.69026 | -120.47890 | 25951 ft | 448 kts | 265° |
| 2026-05-05 06:21 | 37.68576 | -120.51820 | 25439 ft | 444 kts | 265° |
| 2026-05-05 06:22 | 37.68143 | -120.55599 | 24956 ft | 440 kts | 265° |
| 2026-05-05 06:22 | 37.67703 | -120.59400 | 24462 ft | 436 kts | 265° |
| 2026-05-05 06:22 | 37.67263 | -120.63168 | 23975 ft | 432 kts | 265° |
| 2026-05-05 06:22 | 37.66823 | -120.66911 | 23441 ft | 430 kts | 264° |
| 2026-05-05 06:23 | 37.66385 | -120.70624 | 22891 ft | 426 kts | 264° |
| 2026-05-05 06:23 | 37.65949 | -120.74305 | 22376 ft | 422 kts | 264° |
| 2026-05-05 06:23 | 37.65515 | -120.77941 | 21901 ft | 417 kts | 264° |
| 2026-05-05 06:23 | 37.65081 | -120.81542 | 21417 ft | 413 kts | 264° |
| 2026-05-05 06:24 | 37.64652 | -120.85097 | 20948 ft | 409 kts | 264° |
| 2026-05-05 06:24 | 37.64227 | -120.88627 | 20483 ft | 405 kts | 264° |
| 2026-05-05 06:24 | 37.63805 | -120.92117 | 20025 ft | 401 kts | 263° |
| 2026-05-05 06:24 | 37.63384 | -120.95584 | 19569 ft | 398 kts | 263° |
| 2026-05-05 06:25 | 37.62950 | -120.99018 | 19121 ft | 395 kts | 262° |
| 2026-05-05 06:25 | 37.62497 | -121.02419 | 18679 ft | 392 kts | 262° |
| 2026-05-05 06:25 | 37.62045 | -121.05753 | 18221 ft | 389 kts | 262° |
| 2026-05-05 06:25 | 37.61585 | -121.09151 | 17707 ft | 386 kts | 262° |
| 2026-05-05 06:26 | 37.61137 | -121.12469 | 17241 ft | 382 kts | 262° |
| 2026-05-05 06:26 | 37.60695 | -121.15758 | 16788 ft | 378 kts | 262° |
| 2026-05-05 06:26 | 37.60258 | -121.19008 | 16328 ft | 374 kts | 262° |
| 2026-05-05 06:26 | 37.59826 | -121.22221 | 15893 ft | 369 kts | 262° |
| 2026-05-05 06:27 | 37.59398 | -121.25389 | 15461 ft | 365 kts | 262° |
| 2026-05-05 06:27 | 37.58629 | -121.31638 | 14638 ft | 356 kts | 263° |
| 2026-05-05 06:27 | 37.58284 | -121.34711 | 14233 ft | 352 kts | 263° |
| 2026-05-05 06:28 | 37.57944 | -121.37738 | 13833 ft | 348 kts | 263° |
| 2026-05-05 06:28 | 37.57604 | -121.40740 | 13387 ft | 344 kts | 263° |
| 2026-05-05 06:28 | 37.57264 | -121.43707 | 12962 ft | 339 kts | 263° |
| 2026-05-05 06:28 | 37.56927 | -121.46628 | 12559 ft | 335 kts | 263° |
| 2026-05-05 06:29 | 37.56592 | -121.49518 | 12184 ft | 331 kts | 263° |
| 2026-05-05 06:29 | 37.56261 | -121.52368 | 11798 ft | 327 kts | 263° |
| 2026-05-05 06:29 | 37.55932 | -121.55198 | 11345 ft | 326 kts | 263° |
| 2026-05-05 06:29 | 37.55607 | -121.57976 | 10990 ft | 322 kts | 263° |
| 2026-05-05 06:30 | 37.55282 | -121.60749 | 10900 ft | 309 kts | 263° |
| 2026-05-05 06:30 | 37.54939 | -121.63373 | 10788 ft | 298 kts | 258° |
| 2026-05-05 06:30 | 37.54388 | -121.65837 | 10682 ft | 287 kts | 253° |
| 2026-05-05 06:30 | 37.53789 | -121.68174 | 10451 ft | 282 kts | 253° |
| 2026-05-05 06:31 | 37.53182 | -121.70550 | 10155 ft | 281 kts | 253° |
| 2026-05-05 06:31 | 37.52611 | -121.72861 | 9860 ft | 279 kts | 254° |
| 2026-05-05 06:31 | 37.52048 | -121.75186 | 9542 ft | 277 kts | 254° |
| 2026-05-05 06:31 | 37.51493 | -121.77495 | 9238 ft | 274 kts | 254° |
| 2026-05-05 06:32 | 37.50948 | -121.79763 | 9070 ft | 266 kts | 254° |
| 2026-05-05 06:32 | 37.50419 | -121.81973 | 8866 ft | 261 kts | 254° |
| 2026-05-05 06:32 | 37.49896 | -121.84150 | 8507 ft | 260 kts | 253° |
| 2026-05-05 06:32 | 37.49359 | -121.86397 | 7934 ft | 270 kts | 254° |
| 2026-05-05 06:33 | 37.49207 | -121.88727 | 7559 ft | 269 kts | 280° |
| 2026-05-05 06:33 | 37.49610 | -121.91021 | 7228 ft | 268 kts | 281° |
| 2026-05-05 06:33 | 37.49975 | -121.93322 | 6875 ft | 267 kts | 279° |
| 2026-05-05 06:33 | 37.50323 | -121.95616 | 6545 ft | 267 kts | 279° |
| 2026-05-05 06:34 | 37.50669 | -121.97911 | 6174 ft | 267 kts | 279° |
| 2026-05-05 06:34 | 37.51013 | -122.00191 | 5806 ft | 262 kts | 279° |
| 2026-05-05 06:34 | 37.51350 | -122.02418 | 5482 ft | 254 kts | 279° |
| 2026-05-05 06:34 | 37.51680 | -122.04598 | 5159 ft | 253 kts | 279° |
| 2026-05-05 06:35 | 37.52009 | -122.06772 | 4834 ft | 252 kts | 279° |
| 2026-05-05 06:35 | 37.52336 | -122.08938 | 4480 ft | 251 kts | 279° |
| 2026-05-05 06:35 | 37.52661 | -122.11091 | 4172 ft | 250 kts | 279° |
| 2026-05-05 06:35 | 37.52801 | -122.12018 | 4035 ft | 249 kts | 279° |
| 2026-05-05 06:36 | 37.53124 | -122.14156 | 3718 ft | 248 kts | 280° |
| 2026-05-05 06:36 | 37.53447 | -122.16281 | 3398 ft | 246 kts | 282° |
| 2026-05-05 06:36 | 37.54020 | -122.18304 | 3086 ft | 245 kts | 296° |
| 2026-05-05 06:36 | 37.54823 | -122.20177 | 2764 ft | 243 kts | 298° |
| 2026-05-05 06:37 | 37.55628 | -122.22048 | 2444 ft | 239 kts | 297° |
| 2026-05-05 06:37 | 37.56384 | -122.23850 | 2145 ft | 226 kts | 297° |
| 2026-05-05 06:37 | 37.57096 | -122.25555 | 1848 ft | 215 kts | 297° |
| 2026-05-05 06:37 | 37.57777 | -122.27183 | 1566 ft | 206 kts | 297° |
| 2026-05-05 06:38 | 37.58428 | -122.28739 | 1302 ft | 195 kts | 297° |
| 2026-05-05 06:38 | 37.59045 | -122.30210 | 1030 ft | 183 kts | 297° |
| 2026-05-05 06:38 | 37.59608 | -122.31556 | 803 ft | 166 kts | 297° |
| 2026-05-05 06:38 | 37.60121 | -122.32779 | 623 ft | 148 kts | 298° |
| 2026-05-05 06:39 | 37.60571 | -122.33857 | 414 ft | 132 kts | 298° |
| 2026-05-05 06:39 | 37.60987 | -122.34842 | 210 ft | 125 kts | 297° |
| 2026-05-05 06:39 | 37.61393 | -122.35809 | 45 ft | 126 kts | 298° |
| 2026-05-05 06:39 | 37.61783 | -122.36739 | 20 ft | 104 kts | 298° |
| 2026-05-05 06:40 | 37.62048 | -122.37370 | 21 ft | 59 kts | 298° |
| 2026-05-05 06:40 | 37.62198 | -122.37734 | 20 ft | 28 kts | 290° |
| 2026-05-05 06:40 | 37.62230 | -122.37961 | 20 ft | 19 kts | 268° |
| 2026-05-05 06:40 | 37.62227 | -122.38074 | 20 ft | 13 kts | 269° |
| 2026-05-05 06:41 | 37.62228 | -122.38193 | 20 ft | 15 kts | 266° |
| 2026-05-05 06:41 | 37.62196 | -122.38300 | 20 ft | 13 kts | 211° |
| 2026-05-05 06:41 | 37.62109 | -122.38319 | 20 ft | 13 kts | 175° |
| 2026-05-05 06:41 | 37.62050 | -122.38226 | 21 ft | 15 kts | 116° |
| 2026-05-05 06:42 | 37.61996 | -122.38096 | 21 ft | 18 kts | 118° |
| 2026-05-05 06:42 | 37.61953 | -122.37999 | 22 ft | 20 kts | 123° |
| 2026-05-05 06:42 | 37.61792 | -122.37868 | 20 ft | 22 kts | 170° |
| 2026-05-05 06:42 | 37.61702 | -122.37866 | 20 ft | 17 kts | 186° |
| 2026-05-05 06:43 | 37.61629 | -122.37895 | 21 ft | 11 kts | 205° |
| 2026-05-05 06:43 | 37.61527 | -122.37961 | 21 ft | 13 kts | 207° |
| 2026-05-05 06:43 | 37.61471 | -122.37999 | 21 ft | 14 kts | 207° |
| 2026-05-05 06:43 | 37.61407 | -122.38059 | 20 ft | 10 kts | 252° |
| 2026-05-05 06:44 | 37.61451 | -122.38110 | 20 ft | 8 kts | 346° |
| 2026-05-05 06:44 | 37.61471 | -122.38142 | 20 ft | 4 kts | 294° |
| 2026-05-05 06:44 | 37.61479 | -122.38167 | 22 ft | 0 kts | 292° |